sensor_id;sensor_type;location;lat;lon;timestamp;pressure;altitude;pressure_sealevel;temperature;humidity
33625;BME280;19962;47.820;1.930;2023-02-10T00:01:17;102693.03;;;2.58;65.64
33625;BME280;19962;47.820;1.930;2023-02-10T00:03:45;102700.63;;;2.75;65.66
33625;BME280;19962;47.820;1.930;2023-02-10T00:06:12;102692.38;;;3.08;64.92
33625;BME280;19962;47.820;1.930;2023-02-10T00:08:39;102693.41;;;2.96;64.08
33625;BME280;19962;47.820;1.930;2023-02-10T00:11:08;102689.75;;;2.86;64.71
33625;BME280;19962;47.820;1.930;2023-02-10T00:13:37;102695.44;;;2.83;64.92
33625;BME280;19962;47.820;1.930;2023-02-10T00:16:06;102698.59;;;2.88;64.35
33625;BME280;19962;47.820;1.930;2023-02-10T00:18:33;102701.88;;;2.71;64.55
33625;BME280;19962;47.820;1.930;2023-02-10T00:21:12;102698.31;;;2.60;64.68
33625;BME280;19962;47.820;1.930;2023-02-10T00:23:38;102704.97;;;2.56;64.97
33625;BME280;19962;47.820;1.930;2023-02-10T00:26:05;102694.41;;;2.53;65.17
33625;BME280;19962;47.820;1.930;2023-02-10T00:28:33;102704.56;;;2.71;65.10
33625;BME280;19962;47.820;1.930;2023-02-10T00:31:10;102703.63;;;2.61;64.93
33625;BME280;19962;47.820;1.930;2023-02-10T00:33:37;102704.16;;;2.44;65.20
33625;BME280;19962;47.820;1.930;2023-02-10T00:36:08;102705.97;;;2.55;64.92
33625;BME280;19962;47.820;1.930;2023-02-10T00:38:34;102706.94;;;2.65;64.96
33625;BME280;19962;47.820;1.930;2023-02-10T00:41:18;102708.19;;;2.61;65.14
33625;BME280;19962;47.820;1.930;2023-02-10T00:43:45;102705.03;;;2.76;64.56
33625;BME280;19962;47.820;1.930;2023-02-10T00:46:13;102710.50;;;2.65;64.60
33625;BME280;19962;47.820;1.930;2023-02-10T00:48:39;102699.81;;;2.64;64.91
33625;BME280;19962;47.820;1.930;2023-02-10T00:51:05;102704.34;;;2.74;64.56
33625;BME280;19962;47.820;1.930;2023-02-10T00:53:32;102705.69;;;2.80;64.31
33625;BME280;19962;47.820;1.930;2023-02-10T00:55:59;102711.16;;;2.89;64.26
33625;BME280;19962;47.820;1.930;2023-02-10T00:58:25;102698.16;;;3.04;63.96
33625;BME280;19962;47.820;1.930;2023-02-10T01:00:54;102712.16;;;2.88;63.70
33625;BME280;19962;47.820;1.930;2023-02-10T01:03:21;102705.03;;;2.87;64.21
33625;BME280;19962;47.820;1.930;2023-02-10T01:05:47;102709.44;;;2.99;63.75
33625;BME280;19962;47.820;1.930;2023-02-10T01:08:14;102698.13;;;2.83;63.79
33625;BME280;19962;47.820;1.930;2023-02-10T01:10:40;102697.09;;;2.64;64.02
33625;BME280;19962;47.820;1.930;2023-02-10T01:13:09;102702.78;;;2.61;64.03
33625;BME280;19962;47.820;1.930;2023-02-10T01:15:35;102698.25;;;2.50;64.21
33625;BME280;19962;47.820;1.930;2023-02-10T01:18:01;102700.31;;;2.47;64.47
33625;BME280;19962;47.820;1.930;2023-02-10T01:20:28;102695.16;;;2.55;64.61
33625;BME280;19962;47.820;1.930;2023-02-10T01:22:54;102693.31;;;2.44;64.53
33625;BME280;19962;47.820;1.930;2023-02-10T01:25:20;102699.25;;;2.38;64.60
33625;BME280;19962;47.820;1.930;2023-02-10T01:27:46;102695.53;;;2.50;64.66
33625;BME280;19962;47.820;1.930;2023-02-10T01:30:12;102699.22;;;2.49;64.49
33625;BME280;19962;47.820;1.930;2023-02-10T01:32:38;102700.97;;;2.39;64.60
33625;BME280;19962;47.820;1.930;2023-02-10T01:35:05;102689.47;;;2.58;64.60
33625;BME280;19962;47.820;1.930;2023-02-10T01:37:32;102692.06;;;2.48;64.37
33625;BME280;19962;47.820;1.930;2023-02-10T01:39:58;102693.19;;;2.46;64.54
33625;BME280;19962;47.820;1.930;2023-02-10T01:42:24;102703.31;;;2.33;64.50
33625;BME280;19962;47.820;1.930;2023-02-10T01:47:17;102697.50;;;2.48;64.76
33625;BME280;19962;47.820;1.930;2023-02-10T01:49:47;102691.19;;;2.59;64.13
33625;BME280;19962;47.820;1.930;2023-02-10T01:52:20;102693.94;;;2.48;64.11
33625;BME280;19962;47.820;1.930;2023-02-10T01:54:57;102696.41;;;2.29;64.43
33625;BME280;19962;47.820;1.930;2023-02-10T01:57:26;102693.84;;;2.27;64.71
33625;BME280;19962;47.820;1.930;2023-02-10T01:59:52;102699.75;;;2.32;64.59
33625;BME280;19962;47.820;1.930;2023-02-10T02:02:19;102696.78;;;2.46;64.27
33625;BME280;19962;47.820;1.930;2023-02-10T02:04:50;102690.13;;;2.50;63.98
33625;BME280;19962;47.820;1.930;2023-02-10T02:07:18;102697.28;;;2.29;64.34
33625;BME280;19962;47.820;1.930;2023-02-10T02:09:47;102701.84;;;2.29;64.50
33625;BME280;19962;47.820;1.930;2023-02-10T02:18:57;102692.03;;;2.06;64.71
33625;BME280;19962;47.820;1.930;2023-02-10T02:21:59;102689.16;;;2.29;64.71
33625;BME280;19962;47.820;1.930;2023-02-10T02:27:14;102680.72;;;2.12;64.66
33625;BME280;19962;47.820;1.930;2023-02-10T02:30:11;102689.91;;;2.09;65.00
33625;BME280;19962;47.820;1.930;2023-02-10T02:33:02;102683.28;;;2.24;64.64
33625;BME280;19962;47.820;1.930;2023-02-10T02:35:42;102685.63;;;2.18;64.66
33625;BME280;19962;47.820;1.930;2023-02-10T02:38:09;102681.06;;;2.07;64.74
33625;BME280;19962;47.820;1.930;2023-02-10T02:40:35;102689.22;;;1.96;65.05
33625;BME280;19962;47.820;1.930;2023-02-10T02:43:01;102687.09;;;2.00;65.33
33625;BME280;19962;47.820;1.930;2023-02-10T02:45:53;102676.22;;;2.33;65.53
33625;BME280;19962;47.820;1.930;2023-02-10T02:48:37;102678.81;;;2.45;64.65
33625;BME280;19962;47.820;1.930;2023-02-10T02:51:14;102676.41;;;2.52;63.70
33625;BME280;19962;47.820;1.930;2023-02-10T02:54:04;102683.19;;;2.57;63.79
33625;BME280;19962;47.820;1.930;2023-02-10T02:56:45;102678.66;;;2.47;63.49
33625;BME280;19962;47.820;1.930;2023-02-10T02:59:32;102684.88;;;2.27;63.87
33625;BME280;19962;47.820;1.930;2023-02-10T03:02:12;102683.50;;;2.32;64.61
33625;BME280;19962;47.820;1.930;2023-02-10T03:04:40;102692.06;;;2.48;63.84
33625;BME280;19962;47.820;1.930;2023-02-10T03:07:07;102678.09;;;2.32;64.15
33625;BME280;19962;47.820;1.930;2023-02-10T03:09:33;102679.78;;;2.44;64.06
33625;BME280;19962;47.820;1.930;2023-02-10T03:12:00;102672.91;;;2.29;63.93
33625;BME280;19962;47.820;1.930;2023-02-10T03:14:26;102666.25;;;2.33;64.04
33625;BME280;19962;47.820;1.930;2023-02-10T03:16:52;102677.06;;;2.44;63.86
33625;BME280;19962;47.820;1.930;2023-02-10T03:19:18;102684.94;;;2.47;63.49
33625;BME280;19962;47.820;1.930;2023-02-10T03:21:45;102677.94;;;2.34;63.88
33625;BME280;19962;47.820;1.930;2023-02-10T03:24:11;102679.28;;;2.39;63.82
33625;BME280;19962;47.820;1.930;2023-02-10T03:26:37;102678.69;;;2.25;63.92
33625;BME280;19962;47.820;1.930;2023-02-10T03:29:05;102678.13;;;2.10;64.27
33625;BME280;19962;47.820;1.930;2023-02-10T03:31:31;102680.28;;;2.27;64.43
33625;BME280;19962;47.820;1.930;2023-02-10T03:33:57;102677.81;;;2.46;63.55
33625;BME280;19962;47.820;1.930;2023-02-10T03:36:24;102672.88;;;2.40;63.56
33625;BME280;19962;47.820;1.930;2023-02-10T03:38:50;102671.19;;;2.28;63.67
33625;BME280;19962;47.820;1.930;2023-02-10T03:41:16;102663.06;;;2.28;63.87
33625;BME280;19962;47.820;1.930;2023-02-10T03:43:42;102685.59;;;2.40;63.81
33625;BME280;19962;47.820;1.930;2023-02-10T03:46:10;102682.50;;;2.33;64.01
33625;BME280;19962;47.820;1.930;2023-02-10T03:48:36;102680.16;;;2.40;63.86
33625;BME280;19962;47.820;1.930;2023-02-10T03:51:04;102684.38;;;2.11;64.06
33625;BME280;19962;47.820;1.930;2023-02-10T03:53:32;102682.53;;;2.11;64.78
33625;BME280;19962;47.820;1.930;2023-02-10T03:55:58;102692.16;;;2.15;64.43
33625;BME280;19962;47.820;1.930;2023-02-10T03:58:25;102693.38;;;1.67;66.19
33625;BME280;19962;47.820;1.930;2023-02-10T04:00:51;102681.31;;;2.04;66.00
33625;BME280;19962;47.820;1.930;2023-02-10T04:03:18;102681.75;;;2.31;65.07
33625;BME280;19962;47.820;1.930;2023-02-10T04:05:44;102690.28;;;2.16;64.87
33625;BME280;19962;47.820;1.930;2023-02-10T04:08:11;102699.00;;;2.30;65.12
33625;BME280;19962;47.820;1.930;2023-02-10T04:10:37;102699.03;;;2.08;65.43
33625;BME280;19962;47.820;1.930;2023-02-10T04:13:04;102698.94;;;1.99;66.18
33625;BME280;19962;47.820;1.930;2023-02-10T04:15:30;102707.88;;;2.21;65.81
33625;BME280;19962;47.820;1.930;2023-02-10T04:17:56;102702.72;;;2.18;66.00
33625;BME280;19962;47.820;1.930;2023-02-10T04:20:23;102709.97;;;2.40;65.77
33625;BME280;19962;47.820;1.930;2023-02-10T04:22:50;102697.50;;;2.48;65.65
33625;BME280;19962;47.820;1.930;2023-02-10T04:25:16;102719.44;;;2.45;65.68
33625;BME280;19962;47.820;1.930;2023-02-10T04:27:43;102717.59;;;2.35;66.01
33625;BME280;19962;47.820;1.930;2023-02-10T04:30:09;102712.31;;;2.22;67.08
33625;BME280;19962;47.820;1.930;2023-02-10T04:32:36;102707.84;;;2.54;66.69
33625;BME280;19962;47.820;1.930;2023-02-10T04:35:02;102714.44;;;2.72;66.34
33625;BME280;19962;47.820;1.930;2023-02-10T04:37:28;102711.63;;;2.63;66.45
33625;BME280;19962;47.820;1.930;2023-02-10T04:39:54;102721.88;;;2.59;66.54
33625;BME280;19962;47.820;1.930;2023-02-10T04:42:22;102720.25;;;2.68;66.55
33625;BME280;19962;47.820;1.930;2023-02-10T04:44:56;102725.78;;;2.77;66.45
33625;BME280;19962;47.820;1.930;2023-02-10T04:47:24;102734.59;;;2.90;66.25
33625;BME280;19962;47.820;1.930;2023-02-10T04:49:50;102727.44;;;2.89;66.34
33625;BME280;19962;47.820;1.930;2023-02-10T04:52:17;102728.34;;;2.79;66.62
33625;BME280;19962;47.820;1.930;2023-02-10T04:54:43;102731.13;;;2.88;66.73
33625;BME280;19962;47.820;1.930;2023-02-10T04:57:09;102737.66;;;2.97;66.61
33625;BME280;19962;47.820;1.930;2023-02-10T04:59:35;102729.72;;;3.05;66.66
33625;BME280;19962;47.820;1.930;2023-02-10T05:02:01;102738.94;;;3.13;66.60
33625;BME280;19962;47.820;1.930;2023-02-10T05:04:28;102732.53;;;3.14;66.43
33625;BME280;19962;47.820;1.930;2023-02-10T05:06:54;102730.03;;;3.22;66.40
33625;BME280;19962;47.820;1.930;2023-02-10T05:09:24;102731.03;;;3.21;66.62
33625;BME280;19962;47.820;1.930;2023-02-10T05:11:50;102736.16;;;3.24;66.69
33625;BME280;19962;47.820;1.930;2023-02-10T05:14:17;102742.66;;;3.12;67.08
33625;BME280;19962;47.820;1.930;2023-02-10T05:16:43;102747.13;;;3.02;67.60
33625;BME280;19962;47.820;1.930;2023-02-10T05:19:09;102754.53;;;3.00;68.01
33625;BME280;19962;47.820;1.930;2023-02-10T05:21:36;102757.13;;;3.02;68.00
33625;BME280;19962;47.820;1.930;2023-02-10T05:24:02;102752.22;;;3.16;68.15
33625;BME280;19962;47.820;1.930;2023-02-10T05:26:28;102756.25;;;3.33;67.57
33625;BME280;19962;47.820;1.930;2023-02-10T05:28:54;102754.25;;;3.35;67.70
33625;BME280;19962;47.820;1.930;2023-02-10T05:31:20;102754.59;;;3.41;67.60
33625;BME280;19962;47.820;1.930;2023-02-10T05:33:47;102748.78;;;3.46;67.54
33625;BME280;19962;47.820;1.930;2023-02-10T05:36:13;102749.03;;;3.43;67.85
33625;BME280;19962;47.820;1.930;2023-02-10T05:38:39;102758.31;;;3.40;68.35
33625;BME280;19962;47.820;1.930;2023-02-10T05:41:25;102758.06;;;3.43;68.51
33625;BME280;19962;47.820;1.930;2023-02-10T05:43:51;102757.75;;;3.46;68.69
33625;BME280;19962;47.820;1.930;2023-02-10T05:46:17;102757.44;;;3.60;68.55
33625;BME280;19962;47.820;1.930;2023-02-10T05:48:43;102750.16;;;3.61;68.44
33625;BME280;19962;47.820;1.930;2023-02-10T05:51:11;102751.03;;;3.61;68.27
33625;BME280;19962;47.820;1.930;2023-02-10T05:53:37;102759.03;;;3.63;68.17
33625;BME280;19962;47.820;1.930;2023-02-10T05:56:03;102757.63;;;3.68;68.24
33625;BME280;19962;47.820;1.930;2023-02-10T05:58:29;102766.03;;;3.65;68.62
33625;BME280;19962;47.820;1.930;2023-02-10T06:00:58;102759.81;;;3.54;68.83
33625;BME280;19962;47.820;1.930;2023-02-10T06:03:25;102756.72;;;3.58;69.01
33625;BME280;19962;47.820;1.930;2023-02-10T06:05:51;102761.03;;;3.61;69.07
33625;BME280;19962;47.820;1.930;2023-02-10T06:08:17;102769.50;;;3.67;68.79
33625;BME280;19962;47.820;1.930;2023-02-10T06:10:44;102781.06;;;3.69;68.76
33625;BME280;19962;47.820;1.930;2023-02-10T06:13:10;102782.81;;;3.70;68.84
33625;BME280;19962;47.820;1.930;2023-02-10T06:15:36;102780.81;;;3.72;68.80
33625;BME280;19962;47.820;1.930;2023-02-10T06:18:02;102786.00;;;3.75;68.81
33625;BME280;19962;47.820;1.930;2023-02-10T06:20:28;102780.75;;;3.63;69.19
33625;BME280;19962;47.820;1.930;2023-02-10T06:22:54;102784.88;;;3.57;69.32
33625;BME280;19962;47.820;1.930;2023-02-10T06:25:20;102777.84;;;3.55;69.53
33625;BME280;19962;47.820;1.930;2023-02-10T06:27:46;102779.38;;;3.68;69.37
33625;BME280;19962;47.820;1.930;2023-02-10T06:30:13;102779.16;;;3.81;68.83
33625;BME280;19962;47.820;1.930;2023-02-10T06:32:39;102777.19;;;3.83;68.55
33625;BME280;19962;47.820;1.930;2023-02-10T06:35:05;102779.34;;;3.89;68.75
33625;BME280;19962;47.820;1.930;2023-02-10T06:37:31;102779.22;;;3.90;68.61
33625;BME280;19962;47.820;1.930;2023-02-10T06:39:57;102776.06;;;3.85;68.86
33625;BME280;19962;47.820;1.930;2023-02-10T06:42:24;102778.34;;;3.90;68.87
33625;BME280;19962;47.820;1.930;2023-02-10T06:44:50;102772.91;;;3.90;68.86
33625;BME280;19962;47.820;1.930;2023-02-10T06:47:16;102781.81;;;3.92;69.06
33625;BME280;19962;47.820;1.930;2023-02-10T06:49:42;102770.38;;;3.88;69.39
33625;BME280;19962;47.820;1.930;2023-02-10T06:52:08;102785.53;;;3.91;69.43
33625;BME280;19962;47.820;1.930;2023-02-10T06:54:34;102788.56;;;3.97;69.16
33625;BME280;19962;47.820;1.930;2023-02-10T06:57:00;102783.84;;;3.99;69.11
33625;BME280;19962;47.820;1.930;2023-02-10T06:59:26;102780.81;;;3.93;69.44
33625;BME280;19962;47.820;1.930;2023-02-10T07:01:52;102790.34;;;3.87;70.09
33625;BME280;19962;47.820;1.930;2023-02-10T07:04:29;102795.53;;;3.90;69.92
33625;BME280;19962;47.820;1.930;2023-02-10T07:06:56;102798.09;;;3.92;69.92
33625;BME280;19962;47.820;1.930;2023-02-10T07:09:22;102800.50;;;3.85;70.33
33625;BME280;19962;47.820;1.930;2023-02-10T07:11:49;102808.31;;;3.99;69.81
33625;BME280;19962;47.820;1.930;2023-02-10T07:14:15;102811.44;;;3.95;69.93
33625;BME280;19962;47.820;1.930;2023-02-10T07:16:41;102809.19;;;3.79;70.99
33625;BME280;19962;47.820;1.930;2023-02-10T07:19:08;102808.38;;;3.88;70.79
33625;BME280;19962;47.820;1.930;2023-02-10T07:21:34;102821.03;;;3.99;70.58
33625;BME280;19962;47.820;1.930;2023-02-10T07:24:00;102828.78;;;4.03;70.42
33625;BME280;19962;47.820;1.930;2023-02-10T07:26:28;102816.66;;;4.07;69.99
33625;BME280;19962;47.820;1.930;2023-02-10T07:28:54;102819.91;;;4.01;70.41
33625;BME280;19962;47.820;1.930;2023-02-10T07:31:20;102818.03;;;4.02;70.88
33625;BME280;19962;47.820;1.930;2023-02-10T07:33:46;102820.81;;;4.11;70.48
33625;BME280;19962;47.820;1.930;2023-02-10T07:36:13;102820.53;;;4.14;70.40
33625;BME280;19962;47.820;1.930;2023-02-10T07:38:39;102822.53;;;4.12;70.50
33625;BME280;19962;47.820;1.930;2023-02-10T07:41:06;102823.59;;;4.00;71.00
33625;BME280;19962;47.820;1.930;2023-02-10T07:43:32;102816.38;;;4.10;71.19
33625;BME280;19962;47.820;1.930;2023-02-10T07:45:58;102840.50;;;4.24;70.81
33625;BME280;19962;47.820;1.930;2023-02-10T07:48:25;102840.94;;;4.29;70.50
33625;BME280;19962;47.820;1.930;2023-02-10T07:50:52;102843.47;;;4.21;70.81
33625;BME280;19962;47.820;1.930;2023-02-10T07:53:19;102846.38;;;4.29;70.61
33625;BME280;19962;47.820;1.930;2023-02-10T07:55:46;102846.84;;;4.34;70.42
33625;BME280;19962;47.820;1.930;2023-02-10T07:58:13;102846.13;;;4.32;70.16
33625;BME280;19962;47.820;1.930;2023-02-10T08:00:39;102848.97;;;4.31;70.13
33625;BME280;19962;47.820;1.930;2023-02-10T08:03:05;102843.97;;;4.36;70.30
33625;BME280;19962;47.820;1.930;2023-02-10T08:05:32;102839.00;;;4.41;70.35
33625;BME280;19962;47.820;1.930;2023-02-10T08:07:58;102850.44;;;4.44;70.59
33625;BME280;19962;47.820;1.930;2023-02-10T08:10:24;102850.91;;;4.49;70.51
33625;BME280;19962;47.820;1.930;2023-02-10T08:12:50;102849.63;;;4.53;70.06
33625;BME280;19962;47.820;1.930;2023-02-10T08:15:16;102860.31;;;4.45;70.17
33625;BME280;19962;47.820;1.930;2023-02-10T08:17:43;102852.91;;;4.47;70.51
33625;BME280;19962;47.820;1.930;2023-02-10T08:20:10;102857.09;;;4.61;70.55
33625;BME280;19962;47.820;1.930;2023-02-10T08:22:36;102858.25;;;4.58;70.52
33625;BME280;19962;47.820;1.930;2023-02-10T08:25:03;102849.69;;;4.63;70.96
33625;BME280;19962;47.820;1.930;2023-02-10T08:27:29;102860.88;;;4.69;70.96
33625;BME280;19962;47.820;1.930;2023-02-10T08:29:56;102850.84;;;4.70;70.96
33625;BME280;19962;47.820;1.930;2023-02-10T08:32:22;102863.16;;;4.64;71.27
33625;BME280;19962;47.820;1.930;2023-02-10T08:34:49;102858.84;;;4.62;71.45
33625;BME280;19962;47.820;1.930;2023-02-10T08:37:16;102850.81;;;4.60;71.73
33625;BME280;19962;47.820;1.930;2023-02-10T08:39:43;102857.16;;;4.70;71.63
33625;BME280;19962;47.820;1.930;2023-02-10T08:42:10;102868.03;;;4.70;71.77
33625;BME280;19962;47.820;1.930;2023-02-10T08:44:36;102866.06;;;4.72;71.82
33625;BME280;19962;47.820;1.930;2023-02-10T08:47:03;102858.34;;;4.77;71.56
33625;BME280;19962;47.820;1.930;2023-02-10T08:49:29;102866.97;;;4.52;72.66
33625;BME280;19962;47.820;1.930;2023-02-10T08:51:55;102865.44;;;4.59;73.08
33625;BME280;19962;47.820;1.930;2023-02-10T08:54:21;102874.22;;;4.72;72.94
33625;BME280;19962;47.820;1.930;2023-02-10T08:56:52;102875.81;;;4.75;72.88
33625;BME280;19962;47.820;1.930;2023-02-10T08:59:18;102873.69;;;4.88;72.28
33625;BME280;19962;47.820;1.930;2023-02-10T09:01:44;102876.28;;;4.89;72.55
33625;BME280;19962;47.820;1.930;2023-02-10T09:04:11;102882.66;;;4.79;72.61
33625;BME280;19962;47.820;1.930;2023-02-10T09:06:39;102880.13;;;4.87;72.74
33625;BME280;19962;47.820;1.930;2023-02-10T09:09:15;102884.16;;;4.92;72.69
33625;BME280;19962;47.820;1.930;2023-02-10T09:11:43;102885.88;;;4.93;72.59
33625;BME280;19962;47.820;1.930;2023-02-10T09:14:09;102883.19;;;5.03;72.35
33625;BME280;19962;47.820;1.930;2023-02-10T09:16:37;102884.91;;;5.04;72.70
33625;BME280;19962;47.820;1.930;2023-02-10T09:19:03;102891.66;;;5.09;72.78
33625;BME280;19962;47.820;1.930;2023-02-10T09:21:30;102895.09;;;5.11;72.90
33625;BME280;19962;47.820;1.930;2023-02-10T09:23:56;102887.25;;;5.08;72.65
33625;BME280;19962;47.820;1.930;2023-02-10T09:26:22;102894.66;;;4.97;73.53
33625;BME280;19962;47.820;1.930;2023-02-10T09:28:48;102896.38;;;5.07;73.10
33625;BME280;19962;47.820;1.930;2023-02-10T09:31:15;102886.22;;;5.09;73.12
33625;BME280;19962;47.820;1.930;2023-02-10T09:33:42;102883.66;;;5.08;73.26
33625;BME280;19962;47.820;1.930;2023-02-10T09:36:14;102878.78;;;5.11;73.24
33625;BME280;19962;47.820;1.930;2023-02-10T09:38:40;102889.41;;;5.14;73.07
33625;BME280;19962;47.820;1.930;2023-02-10T09:54:56;102883.69;;;5.27;73.46
33625;BME280;19962;47.820;1.930;2023-02-10T09:57:37;102878.84;;;5.40;73.92
33625;BME280;19962;47.820;1.930;2023-02-10T10:00:18;102867.41;;;5.46;73.85
33625;BME280;19962;47.820;1.930;2023-02-10T10:02:52;102865.84;;;5.62;72.89
33625;BME280;19962;47.820;1.930;2023-02-10T10:08:01;102866.56;;;5.83;72.53
33625;BME280;19962;47.820;1.930;2023-02-10T10:10:37;102862.28;;;5.90;72.73
33625;BME280;19962;47.820;1.930;2023-02-10T10:13:15;102861.00;;;5.94;72.69
33625;BME280;19962;47.820;1.930;2023-02-10T10:19:15;102866.00;;;5.89;73.41
33625;BME280;19962;47.820;1.930;2023-02-10T10:27:46;102874.03;;;6.10;73.08
33625;BME280;19962;47.820;1.930;2023-02-10T10:30:20;102879.16;;;6.22;72.81
33625;BME280;19962;47.820;1.930;2023-02-10T10:33:02;102886.88;;;6.36;72.21
33625;BME280;19962;47.820;1.930;2023-02-10T10:35:39;102879.69;;;6.45;72.53
33625;BME280;19962;47.820;1.930;2023-02-10T10:38:37;102881.41;;;6.46;72.96
33625;BME280;19962;47.820;1.930;2023-02-10T10:41:11;102866.63;;;6.48;72.43
33625;BME280;19962;47.820;1.930;2023-02-10T10:43:45;102859.31;;;6.49;73.14
33625;BME280;19962;47.820;1.930;2023-02-10T10:46:17;102857.84;;;6.54;72.96
33625;BME280;19962;47.820;1.930;2023-02-10T10:48:45;102867.41;;;6.68;72.99
33625;BME280;19962;47.820;1.930;2023-02-10T10:51:11;102875.88;;;6.74;72.83
33625;BME280;19962;47.820;1.930;2023-02-10T10:53:46;102877.84;;;6.82;72.63
33625;BME280;19962;47.820;1.930;2023-02-10T10:56:26;102865.88;;;6.92;72.79
33625;BME280;19962;47.820;1.930;2023-02-10T10:58:57;102871.88;;;6.96;72.83
33625;BME280;19962;47.820;1.930;2023-02-10T11:01:41;102867.28;;;6.96;73.26
33625;BME280;19962;47.820;1.930;2023-02-10T11:06:40;102873.97;;;7.11;72.44
33625;BME280;19962;47.820;1.930;2023-02-10T11:14:45;102862.63;;;7.33;71.96
33625;BME280;19962;47.820;1.930;2023-02-10T11:17:24;102857.41;;;7.40;72.14
33625;BME280;19962;47.820;1.930;2023-02-10T11:19:57;102867.16;;;7.42;72.01
33625;BME280;19962;47.820;1.930;2023-02-10T11:22:25;102868.28;;;7.49;71.64
33625;BME280;19962;47.820;1.930;2023-02-10T11:24:54;102875.69;;;7.57;71.58
33625;BME280;19962;47.820;1.930;2023-02-10T11:27:22;102871.28;;;7.64;71.29
33625;BME280;19962;47.820;1.930;2023-02-10T11:29:51;102882.66;;;7.69;71.42
33625;BME280;19962;47.820;1.930;2023-02-10T11:32:36;102877.41;;;7.75;71.25
33625;BME280;19962;47.820;1.930;2023-02-10T11:35:14;102868.88;;;7.78;70.62
33625;BME280;19962;47.820;1.930;2023-02-10T11:37:41;102868.06;;;7.78;70.30
33625;BME280;19962;47.820;1.930;2023-02-10T11:40:24;102870.84;;;7.86;70.01
33625;BME280;19962;47.820;1.930;2023-02-10T11:42:52;102876.53;;;7.92;69.79
33625;BME280;19962;47.820;1.930;2023-02-10T11:45:26;102883.31;;;7.88;67.32
33625;BME280;19962;47.820;1.930;2023-02-10T11:48:20;102891.38;;;7.72;67.21
33625;BME280;19962;47.820;1.930;2023-02-10T11:50:46;102882.25;;;7.81;68.28
33625;BME280;19962;47.820;1.930;2023-02-10T11:53:25;102872.63;;;7.95;67.89
33625;BME280;19962;47.820;1.930;2023-02-10T12:10:13;102858.47;;;8.34;65.52
33625;BME280;19962;47.820;1.930;2023-02-10T12:18:35;102862.59;;;8.38;64.38
33625;BME280;19962;47.820;1.930;2023-02-10T12:24:29;102840.97;;;8.53;64.65
33625;BME280;19962;47.820;1.930;2023-02-10T12:47:13;102828.50;;;8.92;63.16
33625;BME280;19962;47.820;1.930;2023-02-10T12:52:05;102819.81;;;8.96;63.06
33625;BME280;19962;47.820;1.930;2023-02-10T12:54:55;102821.53;;;8.97;62.81
33625;BME280;19962;47.820;1.930;2023-02-10T13:00:27;102810.94;;;9.02;63.32
33625;BME280;19962;47.820;1.930;2023-02-10T13:03:01;102807.00;;;9.05;63.87
33625;BME280;19962;47.820;1.930;2023-02-10T13:05:45;102811.63;;;9.04;63.76
33625;BME280;19962;47.820;1.930;2023-02-10T13:08:23;102809.38;;;9.00;63.74
33625;BME280;19962;47.820;1.930;2023-02-10T13:10:57;102792.63;;;9.03;63.73
33625;BME280;19962;47.820;1.930;2023-02-10T13:13:27;102792.13;;;9.07;64.07
33625;BME280;19962;47.820;1.930;2023-02-10T13:15:58;102800.00;;;9.10;64.08
33625;BME280;19962;47.820;1.930;2023-02-10T13:18:30;102795.56;;;9.17;64.03
33625;BME280;19962;47.820;1.930;2023-02-10T13:23:31;102791.50;;;9.29;63.44
33625;BME280;19962;47.820;1.930;2023-02-10T13:29:08;102780.88;;;9.34;63.21
33625;BME280;19962;47.820;1.930;2023-02-10T13:34:32;102777.47;;;9.32;63.28
33625;BME280;19962;47.820;1.930;2023-02-10T13:39:31;102774.06;;;9.46;63.46
33625;BME280;19962;47.820;1.930;2023-02-10T13:45:00;102771.66;;;9.51;63.50
33625;BME280;19962;47.820;1.930;2023-02-10T13:47:36;102773.19;;;9.46;63.44
33625;BME280;19962;47.820;1.930;2023-02-10T13:52:33;102772.19;;;9.47;63.56
33625;BME280;19962;47.820;1.930;2023-02-10T13:57:38;102763.44;;;9.51;64.03
33625;BME280;19962;47.820;1.930;2023-02-10T14:00:16;102758.28;;;9.56;64.09
33625;BME280;19962;47.820;1.930;2023-02-10T14:02:43;102759.66;;;9.60;63.61
33625;BME280;19962;47.820;1.930;2023-02-10T14:05:35;102747.34;;;9.56;63.67
33625;BME280;19962;47.820;1.930;2023-02-10T14:08:14;102749.72;;;9.51;64.12
33625;BME280;19962;47.820;1.930;2023-02-10T14:10:40;102745.78;;;9.46;64.37
33625;BME280;19962;47.820;1.930;2023-02-10T14:13:56;102743.22;;;9.36;64.71
33625;BME280;19962;47.820;1.930;2023-02-10T14:18:44;102745.63;;;9.31;64.92
33625;BME280;19962;47.820;1.930;2023-02-10T14:21:13;102743.88;;;9.30;64.96
33625;BME280;19962;47.820;1.930;2023-02-10T14:23:55;102742.00;;;9.31;65.17
33625;BME280;19962;47.820;1.930;2023-02-10T14:26:30;102746.63;;;9.30;65.01
33625;BME280;19962;47.820;1.930;2023-02-10T14:28:59;102739.28;;;9.31;64.97
33625;BME280;19962;47.820;1.930;2023-02-10T14:31:35;102732.25;;;9.28;65.05
33625;BME280;19962;47.820;1.930;2023-02-10T14:34:16;102736.38;;;9.32;64.66
33625;BME280;19962;47.820;1.930;2023-02-10T14:36:51;102735.19;;;9.35;64.53
33625;BME280;19962;47.820;1.930;2023-02-10T14:39:21;102745.09;;;9.36;64.73
33625;BME280;19962;47.820;1.930;2023-02-10T14:41:48;102744.94;;;9.37;64.41
33625;BME280;19962;47.820;1.930;2023-02-10T14:46:57;102736.88;;;9.36;64.59
33625;BME280;19962;47.820;1.930;2023-02-10T14:49:24;102736.03;;;9.35;64.29
33625;BME280;19962;47.820;1.930;2023-02-10T14:51:51;102735.84;;;9.37;64.59
33625;BME280;19962;47.820;1.930;2023-02-10T14:54:23;102737.59;;;9.38;64.47
33625;BME280;19962;47.820;1.930;2023-02-10T14:57:12;102734.31;;;9.34;64.23
33625;BME280;19962;47.820;1.930;2023-02-10T14:59:42;102744.94;;;9.37;64.48
33625;BME280;19962;47.820;1.930;2023-02-10T15:02:17;102738.41;;;9.38;64.21
33625;BME280;19962;47.820;1.930;2023-02-10T15:04:46;102734.66;;;9.39;64.37
33625;BME280;19962;47.820;1.930;2023-02-10T15:07:18;102734.66;;;9.39;64.43
33625;BME280;19962;47.820;1.930;2023-02-10T15:09:46;102731.91;;;9.39;64.49
33625;BME280;19962;47.820;1.930;2023-02-10T15:12:16;102727.13;;;9.41;64.28